sensor_id;sensor_type;location;lat;lon;timestamp;pressure;altitude;pressure_sealevel;temperature;humidity
62697;BME280;48761;42.680;23.312;2023-06-10T00:01:04;94444.56;;;19.30;78.15
62697;BME280;48761;42.680;23.312;2023-06-10T00:03:29;94452.66;;;19.30;78.55
62697;BME280;48761;42.680;23.312;2023-06-10T00:05:55;94454.50;;;19.30;78.55
62697;BME280;48761;42.680;23.312;2023-06-10T00:08:21;94468.47;;;19.08;79.03
62697;BME280;48761;42.680;23.312;2023-06-10T00:10:47;94472.84;;;19.09;79.11
62697;BME280;48761;42.680;23.312;2023-06-10T00:13:13;94464.13;;;18.74;80.05
62697;BME280;48761;42.680;23.312;2023-06-10T00:15:39;94443.72;;;18.96;79.21
62697;BME280;48761;42.680;23.312;2023-06-10T00:18:05;94456.25;;;19.54;77.06
62697;BME280;48761;42.680;23.312;2023-06-10T00:20:31;94457.69;;;19.33;77.43
62697;BME280;48761;42.680;23.312;2023-06-10T00:23:01;94458.72;;;19.24;78.02
62697;BME280;48761;42.680;23.312;2023-06-10T00:25:26;94465.75;;;19.42;77.53
62697;BME280;48761;42.680;23.312;2023-06-10T00:27:52;94459.13;;;19.61;76.68
62697;BME280;48761;42.680;23.312;2023-06-10T00:30:18;94460.19;;;19.92;75.31
62697;BME280;48761;42.680;23.312;2023-06-10T00:32:44;94455.28;;;19.96;74.86
62697;BME280;48761;42.680;23.312;2023-06-10T00:35:10;94460.75;;;20.11;74.25
62697;BME280;48761;42.680;23.312;2023-06-10T00:37:36;94454.69;;;20.09;74.09
62697;BME280;48761;42.680;23.312;2023-06-10T00:40:03;94446.31;;;20.03;73.95
62697;BME280;48761;42.680;23.312;2023-06-10T00:42:30;94446.50;;;20.02;74.03
62697;BME280;48761;42.680;23.312;2023-06-10T00:44:56;94460.75;;;20.19;74.07
62697;BME280;48761;42.680;23.312;2023-06-10T00:47:23;94461.78;;;20.10;74.36
62697;BME280;48761;42.680;23.312;2023-06-10T00:49:52;94461.09;;;20.16;74.12
62697;BME280;48761;42.680;23.312;2023-06-10T00:52:19;94457.22;;;20.10;74.15
62697;BME280;48761;42.680;23.312;2023-06-10T00:54:48;94448.81;;;20.13;73.87
62697;BME280;48761;42.680;23.312;2023-06-10T00:57:13;94452.66;;;20.11;73.92
62697;BME280;48761;42.680;23.312;2023-06-10T00:59:41;94460.88;;;19.86;75.09
62697;BME280;48761;42.680;23.312;2023-06-10T01:02:09;94439.53;;;19.67;75.47
62697;BME280;48761;42.680;23.312;2023-06-10T01:04:35;94459.81;;;19.95;74.99
62697;BME280;48761;42.680;23.312;2023-06-10T01:09:49;94468.75;;;19.47;77.50
62697;BME280;48761;42.680;23.312;2023-06-10T01:14:58;94466.38;;;20.01;75.13
62697;BME280;48761;42.680;23.312;2023-06-10T01:17:24;94464.66;;;20.08;74.81
62697;BME280;48761;42.680;23.312;2023-06-10T01:19:55;94468.56;;;19.97;75.17
62697;BME280;48761;42.680;23.312;2023-06-10T01:22:23;94473.84;;;19.90;75.98
62697;BME280;48761;42.680;23.312;2023-06-10T01:24:49;94476.75;;;19.72;76.79
62697;BME280;48761;42.680;23.312;2023-06-10T01:27:15;94453.75;;;19.53;77.57
62697;BME280;48761;42.680;23.312;2023-06-10T01:29:54;94454.50;;;19.78;76.60
62697;BME280;48761;42.680;23.312;2023-06-10T01:32:33;94454.59;;;20.02;75.83
62697;BME280;48761;42.680;23.312;2023-06-10T01:35:02;94457.75;;;20.14;75.44
62697;BME280;48761;42.680;23.312;2023-06-10T01:37:28;94468.50;;;20.22;75.17
62697;BME280;48761;42.680;23.312;2023-06-10T01:39:57;94468.19;;;20.17;75.08
62697;BME280;48761;42.680;23.312;2023-06-10T01:42:24;94467.53;;;20.07;75.67
62697;BME280;48761;42.680;23.312;2023-06-10T01:44:51;94463.44;;;20.11;75.60
62697;BME280;48761;42.680;23.312;2023-06-10T01:47:17;94461.78;;;20.10;75.36
62697;BME280;48761;42.680;23.312;2023-06-10T01:49:43;94441.25;;;20.00;75.51
62697;BME280;48761;42.680;23.312;2023-06-10T01:52:09;94459.25;;;20.16;75.17
62697;BME280;48761;42.680;23.312;2023-06-10T01:54:36;94459.69;;;20.29;74.86
62697;BME280;48761;42.680;23.312;2023-06-10T01:57:02;94433.81;;;20.02;75.08
62697;BME280;48761;42.680;23.312;2023-06-10T01:59:28;94441.22;;;20.17;74.97
62697;BME280;48761;42.680;23.312;2023-06-10T02:01:54;94443.78;;;20.34;74.47
62697;BME280;48761;42.680;23.312;2023-06-10T02:04:20;94433.28;;;20.15;75.04
62697;BME280;48761;42.680;23.312;2023-06-10T02:06:46;94435.81;;;20.17;75.13
62697;BME280;48761;42.680;23.312;2023-06-10T02:09:12;94437.56;;;20.01;75.84
62697;BME280;48761;42.680;23.312;2023-06-10T02:11:38;94432.16;;;20.01;75.71
62697;BME280;48761;42.680;23.312;2023-06-10T02:14:04;94429.47;;;20.01;75.62
62697;BME280;48761;42.680;23.312;2023-06-10T02:16:30;94440.81;;;20.20;74.92
62697;BME280;48761;42.680;23.312;2023-06-10T02:18:56;94425.84;;;20.18;74.76
62697;BME280;48761;42.680;23.312;2023-06-10T02:21:21;94423.75;;;19.96;75.57
62697;BME280;48761;42.680;23.312;2023-06-10T02:23:47;94420.44;;;19.86;75.97
62697;BME280;48761;42.680;23.312;2023-06-10T02:26:13;94415.66;;;19.64;77.21
62697;BME280;48761;42.680;23.312;2023-06-10T02:28:42;94425.63;;;19.47;78.15
62697;BME280;48761;42.680;23.312;2023-06-10T02:31:08;94423.63;;;19.49;77.83
62697;BME280;48761;42.680;23.312;2023-06-10T02:33:34;94425.28;;;19.58;77.74
62697;BME280;48761;42.680;23.312;2023-06-10T02:36:00;94424.66;;;19.80;77.18
62697;BME280;48761;42.680;23.312;2023-06-10T02:38:26;94425.81;;;19.54;77.88
62697;BME280;48761;42.680;23.312;2023-06-10T02:40:52;94427.66;;;19.45;78.10
62697;BME280;48761;42.680;23.312;2023-06-10T02:43:18;94428.72;;;19.44;78.01
62697;BME280;48761;42.680;23.312;2023-06-10T02:45:44;94408.81;;;19.36;78.58
62697;BME280;48761;42.680;23.312;2023-06-10T02:48:09;94411.81;;;19.58;78.04
62697;BME280;48761;42.680;23.312;2023-06-10T02:50:36;94416.16;;;19.59;77.64
62697;BME280;48761;42.680;23.312;2023-06-10T02:53:01;94408.03;;;19.68;76.88
62697;BME280;48761;42.680;23.312;2023-06-10T02:55:27;94410.00;;;19.82;76.56
62697;BME280;48761;42.680;23.312;2023-06-10T02:57:53;94406.94;;;19.86;76.56
62697;BME280;48761;42.680;23.312;2023-06-10T03:00:20;94402.94;;;19.81;77.09
62697;BME280;48761;42.680;23.312;2023-06-10T03:02:46;94408.31;;;19.81;77.77
62697;BME280;48761;42.680;23.312;2023-06-10T03:05:12;94408.53;;;19.14;80.33
62697;BME280;48761;42.680;23.312;2023-06-10T03:07:38;94408.72;;;19.13;81.33
62697;BME280;48761;42.680;23.312;2023-06-10T03:10:05;94392.75;;;18.86;81.75
62697;BME280;48761;42.680;23.312;2023-06-10T03:12:31;94418.00;;;19.19;81.00
62697;BME280;48761;42.680;23.312;2023-06-10T03:14:57;94417.47;;;19.15;81.98
62697;BME280;48761;42.680;23.312;2023-06-10T03:17:23;94421.19;;;19.06;82.49
62697;BME280;48761;42.680;23.312;2023-06-10T03:19:50;94429.75;;;19.26;82.33
62697;BME280;48761;42.680;23.312;2023-06-10T03:22:16;94408.56;;;18.98;82.85
62697;BME280;48761;42.680;23.312;2023-06-10T03:24:42;94426.75;;;19.21;83.20
62697;BME280;48761;42.680;23.312;2023-06-10T03:27:08;94440.53;;;19.26;83.10
62697;BME280;48761;42.680;23.312;2023-06-10T03:29:35;94441.03;;;19.13;83.91
62697;BME280;48761;42.680;23.312;2023-06-10T03:32:01;94425.34;;;19.16;83.84
62697;BME280;48761;42.680;23.312;2023-06-10T03:34:27;94447.50;;;19.60;82.47
62697;BME280;48761;42.680;23.312;2023-06-10T03:36:53;94446.78;;;19.67;81.98
62697;BME280;48761;42.680;23.312;2023-06-10T03:39:19;94445.13;;;19.66;82.82
62697;BME280;48761;42.680;23.312;2023-06-10T03:41:45;94456.69;;;19.83;82.22
62697;BME280;48761;42.680;23.312;2023-06-10T03:44:11;94444.47;;;19.55;83.41
62697;BME280;48761;42.680;23.312;2023-06-10T03:46:37;94429.16;;;19.56;83.40
62697;BME280;48761;42.680;23.312;2023-06-10T03:49:03;94439.44;;;19.92;82.15
62697;BME280;48761;42.680;23.312;2023-06-10T03:51:29;94437.91;;;19.98;81.63
62697;BME280;48761;42.680;23.312;2023-06-10T03:53:55;94442.09;;;20.01;81.12
62697;BME280;48761;42.680;23.312;2023-06-10T03:56:21;94422.06;;;19.95;80.45
62697;BME280;48761;42.680;23.312;2023-06-10T03:58:47;94422.47;;;19.83;80.49
62697;BME280;48761;42.680;23.312;2023-06-10T04:01:13;94436.19;;;19.97;80.41
62697;BME280;48761;42.680;23.312;2023-06-10T04:03:40;94442.22;;;20.08;80.66
62697;BME280;48761;42.680;23.312;2023-06-10T04:06:06;94424.72;;;20.03;80.55
62697;BME280;48761;42.680;23.312;2023-06-10T04:08:32;94438.25;;;19.95;80.89
62697;BME280;48761;42.680;23.312;2023-06-10T04:10:58;94425.03;;;19.77;80.81
62697;BME280;48761;42.680;23.312;2023-06-10T04:13:24;94432.00;;;19.54;81.91
62697;BME280;48761;42.680;23.312;2023-06-10T04:15:49;94449.97;;;19.79;81.49
62697;BME280;48761;42.680;23.312;2023-06-10T04:18:16;94459.34;;;19.51;82.91
62697;BME280;48761;42.680;23.312;2023-06-10T04:20:41;94444.56;;;19.22;83.16
62697;BME280;48761;42.680;23.312;2023-06-10T04:23:08;94458.03;;;19.13;84.01
62697;BME280;48761;42.680;23.312;2023-06-10T04:25:34;94455.88;;;18.75;85.15
62697;BME280;48761;42.680;23.312;2023-06-10T04:28:00;94460.91;;;18.78;84.91
62697;BME280;48761;42.680;23.312;2023-06-10T04:30:25;94422.06;;;18.47;85.61
62697;BME280;48761;42.680;23.312;2023-06-10T04:32:51;94450.66;;;18.48;86.37
62697;BME280;48761;42.680;23.312;2023-06-10T04:35:17;94450.66;;;18.40;86.52
62697;BME280;48761;42.680;23.312;2023-06-10T04:37:43;94445.59;;;18.54;86.00
62697;BME280;48761;42.680;23.312;2023-06-10T04:40:09;94448.63;;;18.84;84.57
62697;BME280;48761;42.680;23.312;2023-06-10T04:42:36;94458.41;;;18.60;85.44
62697;BME280;48761;42.680;23.312;2023-06-10T04:45:02;94463.41;;;18.30;86.32
62697;BME280;48761;42.680;23.312;2023-06-10T04:47:28;94451.66;;;18.39;86.13
62697;BME280;48761;42.680;23.312;2023-06-10T04:49:54;94445.69;;;18.02;87.53
62697;BME280;48761;42.680;23.312;2023-06-10T04:52:20;94450.25;;;18.18;87.58
62697;BME280;48761;42.680;23.312;2023-06-10T04:54:46;94449.66;;;18.58;86.01
62697;BME280;48761;42.680;23.312;2023-06-10T04:57:12;94447.63;;;18.43;86.57
62697;BME280;48761;42.680;23.312;2023-06-10T04:59:38;94451.34;;;18.59;86.61
62697;BME280;48761;42.680;23.312;2023-06-10T05:02:04;94448.97;;;18.98;84.51
62697;BME280;48761;42.680;23.312;2023-06-10T05:04:30;94446.06;;;19.33;82.48
62697;BME280;48761;42.680;23.312;2023-06-10T05:06:56;94443.38;;;19.41;82.14
62697;BME280;48761;42.680;23.312;2023-06-10T05:09:22;94447.56;;;19.44;82.06
62697;BME280;48761;42.680;23.312;2023-06-10T05:11:48;94451.03;;;19.61;81.65
62697;BME280;48761;42.680;23.312;2023-06-10T05:14:14;94452.03;;;19.68;81.50
62697;BME280;48761;42.680;23.312;2023-06-10T05:16:40;94454.00;;;19.75;81.16
62697;BME280;48761;42.680;23.312;2023-06-10T05:19:06;94452.16;;;19.75;81.70
62697;BME280;48761;42.680;23.312;2023-06-10T05:21:32;94443.28;;;19.98;80.65
62697;BME280;48761;42.680;23.312;2023-06-10T05:23:58;94443.59;;;20.03;79.76
62697;BME280;48761;42.680;23.312;2023-06-10T05:26:24;94449.69;;;19.97;80.01
62697;BME280;48761;42.680;23.312;2023-06-10T05:28:50;94432.53;;;19.90;80.15
62697;BME280;48761;42.680;23.312;2023-06-10T05:31:16;94445.66;;;20.01;80.58
62697;BME280;48761;42.680;23.312;2023-06-10T05:33:42;94449.13;;;20.19;79.77
62697;BME280;48761;42.680;23.312;2023-06-10T05:36:08;94454.97;;;19.82;80.61
62697;BME280;48761;42.680;23.312;2023-06-10T05:38:33;94456.97;;;19.56;81.67
62697;BME280;48761;42.680;23.312;2023-06-10T05:40:59;94440.53;;;19.09;84.28
62697;BME280;48761;42.680;23.312;2023-06-10T05:43:25;94457.97;;;19.47;82.95
62697;BME280;48761;42.680;23.312;2023-06-10T05:45:52;94453.69;;;19.21;83.89
62697;BME280;48761;42.680;23.312;2023-06-10T05:48:18;94461.13;;;19.67;82.70
62697;BME280;48761;42.680;23.312;2023-06-10T05:50:44;94452.25;;;19.90;81.46
62697;BME280;48761;42.680;23.312;2023-06-10T05:53:09;94463.91;;;19.91;81.35
62697;BME280;48761;42.680;23.312;2023-06-10T05:55:35;94440.53;;;19.75;80.94
62697;BME280;48761;42.680;23.312;2023-06-10T05:58:01;94463.13;;;19.74;81.63
62697;BME280;48761;42.680;23.312;2023-06-10T06:00:27;94468.13;;;19.85;81.41
62697;BME280;48761;42.680;23.312;2023-06-10T06:02:54;94470.13;;;20.32;79.10
62697;BME280;48761;42.680;23.312;2023-06-10T06:05:20;94465.81;;;20.46;78.26
62697;BME280;48761;42.680;23.312;2023-06-10T06:07:45;94465.22;;;20.59;77.25
62697;BME280;48761;42.680;23.312;2023-06-10T06:10:11;94461.00;;;20.80;76.18
62697;BME280;48761;42.680;23.312;2023-06-10T06:12:37;94466.06;;;20.83;76.11
62697;BME280;48761;42.680;23.312;2023-06-10T06:15:03;94459.13;;;20.33;75.86
62697;BME280;48761;42.680;23.312;2023-06-10T06:17:29;94450.66;;;20.13;76.81
62697;BME280;48761;42.680;23.312;2023-06-10T06:19:55;94465.31;;;20.10;78.35
62697;BME280;48761;42.680;23.312;2023-06-10T06:22:21;94455.50;;;20.49;76.68
62697;BME280;48761;42.680;23.312;2023-06-10T06:24:47;94460.63;;;20.36;76.30
62697;BME280;48761;42.680;23.312;2023-06-10T06:27:13;94455.97;;;20.30;75.92
62697;BME280;48761;42.680;23.312;2023-06-10T06:29:39;94468.16;;;20.72;74.87
62697;BME280;48761;42.680;23.312;2023-06-10T06:32:05;94477.69;;;20.60;74.92
62697;BME280;48761;42.680;23.312;2023-06-10T06:34:31;94462.31;;;20.84;73.63
62697;BME280;48761;42.680;23.312;2023-06-10T06:36:57;94474.91;;;20.68;74.63
62697;BME280;48761;42.680;23.312;2023-06-10T06:39:23;94461.69;;;20.35;76.16
62697;BME280;48761;42.680;23.312;2023-06-10T06:41:49;94463.34;;;20.36;75.97
62697;BME280;48761;42.680;23.312;2023-06-10T06:44:15;94460.41;;;20.69;74.20
62697;BME280;48761;42.680;23.312;2023-06-10T06:46:41;94458.22;;;20.88;74.28
62697;BME280;48761;42.680;23.312;2023-06-10T06:49:07;94463.34;;;20.83;74.88
62697;BME280;48761;42.680;23.312;2023-06-10T06:51:33;94457.47;;;21.03;74.48
62697;BME280;48761;42.680;23.312;2023-06-10T06:53:58;94447.06;;;21.15;73.62
62697;BME280;48761;42.680;23.312;2023-06-10T06:56:25;94454.81;;;20.94;74.48
62697;BME280;48761;42.680;23.312;2023-06-10T06:58:51;94444.72;;;21.27;73.76
62697;BME280;48761;42.680;23.312;2023-06-10T07:01:17;94454.53;;;21.28;73.75
62697;BME280;48761;42.680;23.312;2023-06-10T07:03:42;94452.78;;;21.66;72.27
62697;BME280;48761;42.680;23.312;2023-06-10T07:06:09;94455.75;;;21.86;70.93
62697;BME280;48761;42.680;23.312;2023-06-10T07:08:34;94435.03;;;21.78;69.98
62697;BME280;48761;42.680;23.312;2023-06-10T07:11:00;94451.25;;;22.09;69.60
62697;BME280;48761;42.680;23.312;2023-06-10T07:13:26;94451.25;;;22.09;69.09
62697;BME280;48761;42.680;23.312;2023-06-10T07:15:52;94422.50;;;22.08;68.75
62697;BME280;48761;42.680;23.312;2023-06-10T07:18:18;94439.56;;;22.45;67.74
62697;BME280;48761;42.680;23.312;2023-06-10T07:20:44;94445.78;;;22.39;67.85
62697;BME280;48761;42.680;23.312;2023-06-10T07:23:10;94440.97;;;22.19;68.24
62697;BME280;48761;42.680;23.312;2023-06-10T07:25:36;94430.06;;;22.49;67.25
62697;BME280;48761;42.680;23.312;2023-06-10T07:28:02;94436.16;;;22.14;67.59
62697;BME280;48761;42.680;23.312;2023-06-10T07:30:28;94441.38;;;21.86;68.80
62697;BME280;48761;42.680;23.312;2023-06-10T07:32:54;94443.31;;;22.44;65.97
62697;BME280;48761;42.680;23.312;2023-06-10T07:35:20;94438.66;;;22.16;64.47
62697;BME280;48761;42.680;23.312;2023-06-10T07:37:46;94434.50;;;21.68;65.24
62697;BME280;48761;42.680;23.312;2023-06-10T07:40:11;94449.78;;;21.60;65.17
62697;BME280;48761;42.680;23.312;2023-06-10T07:42:37;94444.09;;;21.86;64.93
62697;BME280;48761;42.680;23.312;2023-06-10T07:45:04;94437.00;;;22.37;62.87
62697;BME280;48761;42.680;23.312;2023-06-10T07:47:32;94438.09;;;22.05;62.72
62697;BME280;48761;42.680;23.312;2023-06-10T07:49:58;94436.44;;;22.86;60.18
62697;BME280;48761;42.680;23.312;2023-06-10T07:52:24;94433.69;;;23.36;57.97
62697;BME280;48761;42.680;23.312;2023-06-10T07:54:50;94431.59;;;22.81;61.24
62697;BME280;48761;42.680;23.312;2023-06-10T07:57:16;94420.50;;;23.55;60.90
62697;BME280;48761;42.680;23.312;2023-06-10T07:59:42;94434.28;;;24.72;57.07
62697;BME280;48761;42.680;23.312;2023-06-10T08:02:08;94435.56;;;25.31;54.78
62697;BME280;48761;42.680;23.312;2023-06-10T08:04:34;94433.25;;;25.55;53.44
62697;BME280;48761;42.680;23.312;2023-06-10T08:07:00;94435.41;;;26.13;51.88
62697;BME280;48761;42.680;23.312;2023-06-10T08:09:25;94435.97;;;25.76;50.87
62697;BME280;48761;42.680;23.312;2023-06-10T08:11:51;94436.63;;;26.17;48.32
62697;BME280;48761;42.680;23.312;2023-06-10T08:14:17;94430.50;;;25.62;48.41
62697;BME280;48761;42.680;23.312;2023-06-10T08:16:43;94437.19;;;25.80;48.53
62697;BME280;48761;42.680;23.312;2023-06-10T08:19:09;94430.34;;;26.23;47.72
62697;BME280;48761;42.680;23.312;2023-06-10T08:21:36;94424.41;;;25.87;47.59
62697;BME280;48761;42.680;23.312;2023-06-10T08:24:02;94421.97;;;26.64;45.92
62697;BME280;48761;42.680;23.312;2023-06-10T08:26:28;94413.34;;;26.67;44.29
62697;BME280;48761;42.680;23.312;2023-06-10T08:28:54;94404.97;;;26.69;43.64
62697;BME280;48761;42.680;23.312;2023-06-10T08:31:20;94399.66;;;27.51;42.41
62697;BME280;48761;42.680;23.312;2023-06-10T08:33:46;94407.22;;;26.33;44.78
62697;BME280;48761;42.680;23.312;2023-06-10T08:36:15;94408.16;;;26.91;44.38
62697;BME280;48761;42.680;23.312;2023-06-10T08:38:41;94394.81;;;27.34;43.44
62697;BME280;48761;42.680;23.312;2023-06-10T08:41:09;94408.84;;;26.47;45.30
62697;BME280;48761;42.680;23.312;2023-06-10T08:46:29;94401.78;;;26.97;43.34
62697;BME280;48761;42.680;23.312;2023-06-10T08:49:00;94396.78;;;27.46;42.28
62697;BME280;48761;42.680;23.312;2023-06-10T08:51:29;94400.91;;;27.55;42.40
62697;BME280;48761;42.680;23.312;2023-06-10T08:54:05;94392.59;;;27.88;41.65
62697;BME280;48761;42.680;23.312;2023-06-10T08:56:39;94382.44;;;28.26;39.98
62697;BME280;48761;42.680;23.312;2023-06-10T08:59:06;94380.78;;;27.05;41.48
62697;BME280;48761;42.680;23.312;2023-06-10T09:01:32;94377.66;;;26.75;42.54
62697;BME280;48761;42.680;23.312;2023-06-10T09:03:59;94370.47;;;26.10;43.54
62697;BME280;48761;42.680;23.312;2023-06-10T09:06:25;94374.75;;;26.70;42.27
62697;BME280;48761;42.680;23.312;2023-06-10T09:08:51;94379.94;;;27.04;41.59
62697;BME280;48761;42.680;23.312;2023-06-10T09:11:18;94367.72;;;25.77;44.12
62697;BME280;48761;42.680;23.312;2023-06-10T09:13:44;94382.47;;;26.41;43.32
62697;BME280;48761;42.680;23.312;2023-06-10T09:16:10;94377.00;;;26.08;44.50
62697;BME280;48761;42.680;23.312;2023-06-10T09:18:39;94368.03;;;26.01;44.17
62697;BME280;48761;42.680;23.312;2023-06-10T09:21:05;94366.41;;;26.65;43.77
62697;BME280;48761;42.680;23.312;2023-06-10T09:23:31;94367.09;;;26.21;44.51
62697;BME280;48761;42.680;23.312;2023-06-10T09:25:58;94374.25;;;25.49;45.57
62697;BME280;48761;42.680;23.312;2023-06-10T09:28:25;94362.81;;;25.06;46.66
62697;BME280;48761;42.680;23.312;2023-06-10T09:31:05;94369.09;;;24.79;47.81
62697;BME280;48761;42.680;23.312;2023-06-10T09:33:31;94370.34;;;24.77;48.19
62697;BME280;48761;42.680;23.312;2023-06-10T09:35:57;94369.50;;;24.83;47.15
62697;BME280;48761;42.680;23.312;2023-06-10T09:38:29;94361.09;;;25.46;45.47
62697;BME280;48761;42.680;23.312;2023-06-10T09:40:56;94360.94;;;25.93;44.59
62697;BME280;48761;42.680;23.312;2023-06-10T09:43:21;94356.44;;;26.13;44.42
62697;BME280;48761;42.680;23.312;2023-06-10T09:45:49;94353.66;;;26.26;44.70
62697;BME280;48761;42.680;23.312;2023-06-10T09:48:15;94343.34;;;25.96;45.58
62697;BME280;48761;42.680;23.312;2023-06-10T09:50:44;94349.69;;;25.76;46.29
62697;BME280;48761;42.680;23.312;2023-06-10T09:53:11;94346.91;;;25.16;47.12
62697;BME280;48761;42.680;23.312;2023-06-10T09:55:38;94349.03;;;25.14;48.07
62697;BME280;48761;42.680;23.312;2023-06-10T09:58:04;94325.19;;;24.89;47.27
62697;BME280;48761;42.680;23.312;2023-06-10T10:00:32;94336.47;;;24.45;48.05
62697;BME280;48761;42.680;23.312;2023-06-10T10:02:58;94342.31;;;24.42;48.37
62697;BME280;48761;42.680;23.312;2023-06-10T10:05:24;94336.91;;;24.69;48.28
62697;BME280;48761;42.680;23.312;2023-06-10T10:07:51;94329.16;;;25.14;44.67
62697;BME280;48761;42.680;23.312;2023-06-10T10:10:19;94329.38;;;25.12;44.79
62697;BME280;48761;42.680;23.312;2023-06-10T10:12:50;94331.06;;;24.59;43.15
62697;BME280;48761;42.680;23.312;2023-06-10T10:15:17;94333.13;;;24.43;43.20
62697;BME280;48761;42.680;23.312;2023-06-10T10:17:53;94318.28;;;24.52;43.63
62697;BME280;48761;42.680;23.312;2023-06-10T10:20:24;94306.75;;;24.03;45.81
62697;BME280;48761;42.680;23.312;2023-06-10T10:22:52;94325.78;;;24.23;46.15
62697;BME280;48761;42.680;23.312;2023-06-10T10:25:29;94328.00;;;23.99;45.68
62697;BME280;48761;42.680;23.312;2023-06-10T10:30:30;94324.06;;;25.45;43.79
62697;BME280;48761;42.680;23.312;2023-06-10T10:33:04;94273.97;;;25.73;43.04
62697;BME280;48761;42.680;23.312;2023-06-10T10:35:33;94305.44;;;26.34;41.89
62697;BME280;48761;42.680;23.312;2023-06-10T10:37:59;94319.63;;;25.57;43.74
62697;BME280;48761;42.680;23.312;2023-06-10T10:40:26;94285.56;;;25.94;43.27
62697;BME280;48761;42.680;23.312;2023-06-10T10:42:56;94311.03;;;26.06;43.43
62697;BME280;48761;42.680;23.312;2023-06-10T10:45:22;94308.56;;;25.98;44.54
62697;BME280;48761;42.680;23.312;2023-06-10T10:47:53;94299.94;;;26.08;43.32
62697;BME280;48761;42.680;23.312;2023-06-10T10:50:20;94293.75;;;26.26;43.57
62697;BME280;48761;42.680;23.312;2023-06-10T10:52:53;94271.44;;;26.11;42.75
62697;BME280;48761;42.680;23.312;2023-06-10T10:55:19;94296.22;;;26.86;42.54
62697;BME280;48761;42.680;23.312;2023-06-10T10:57:56;94281.59;;;26.22;43.26
62697;BME280;48761;42.680;23.312;2023-06-10T11:00:29;94302.16;;;25.19;45.04
62697;BME280;48761;42.680;23.312;2023-06-10T11:05:47;94289.66;;;24.70;45.54
62697;BME280;48761;42.680;23.312;2023-06-10T11:08:59;94290.50;;;24.91;43.73
62697;BME280;48761;42.680;23.312;2023-06-10T11:11:00;94285.47;;;25.08;43.33
62697;BME280;48761;42.680;23.312;2023-06-10T11:13:26;94237.88;;;25.38;43.01
62697;BME280;48761;42.680;23.312;2023-06-10T11:15:57;94269.56;;;26.04;42.32
62697;BME280;48761;42.680;23.312;2023-06-10T11:18:28;94271.00;;;26.14;41.15
62697;BME280;48761;42.680;23.312;2023-06-10T11:20:56;94272.03;;;26.13;40.93
62697;BME280;48761;42.680;23.312;2023-06-10T11:31:28;94247.44;;;25.02;45.33
62697;BME280;48761;42.680;23.312;2023-06-10T11:34:02;94249.72;;;25.05;44.92
62697;BME280;48761;42.680;23.312;2023-06-10T11:36:29;94244.56;;;24.49;45.90
62697;BME280;48761;42.680;23.312;2023-06-10T11:38:57;94229.94;;;24.50;45.57
62697;BME280;48761;42.680;23.312;2023-06-10T11:41:24;94239.13;;;24.69;45.95
62697;BME280;48761;42.680;23.312;2023-06-10T11:43:50;94252.47;;;24.78;45.91
62697;BME280;48761;42.680;23.312;2023-06-10T11:46:16;94244.09;;;24.86;46.22
62697;BME280;48761;42.680;23.312;2023-06-10T11:48:53;94230.31;;;24.81;45.09
62697;BME280;48761;42.680;23.312;2023-06-10T11:51:19;94240.28;;;25.14;45.34
62697;BME280;48761;42.680;23.312;2023-06-10T11:53:47;94238.88;;;25.51;44.67
62697;BME280;48761;42.680;23.312;2023-06-10T11:56:13;94243.69;;;24.76;45.56
62697;BME280;48761;42.680;23.312;2023-06-10T11:58:43;94233.34;;;25.18;44.83
62697;BME280;48761;42.680;23.312;2023-06-10T12:01:10;94234.81;;;25.67;43.70
62697;BME280;48761;42.680;23.312;2023-06-10T12:03:37;94212.69;;;25.17;43.10
62697;BME280;48761;42.680;23.312;2023-06-10T12:06:04;94239.34;;;25.41;43.60
62697;BME280;48761;42.680;23.312;2023-06-10T12:08:31;94225.13;;;25.39;43.53
62697;BME280;48761;42.680;23.312;2023-06-10T12:10:57;94239.25;;;25.15;43.08
62697;BME280;48761;42.680;23.312;2023-06-10T12:13:26;94238.47;;;24.81;41.08
62697;BME280;48761;42.680;23.312;2023-06-10T12:15:52;94242.00;;;24.81;40.87
62697;BME280;48761;42.680;23.312;2023-06-10T12:18:20;94209.38;;;24.88;39.59
62697;BME280;48761;42.680;23.312;2023-06-10T12:20:47;94231.78;;;25.50;39.06
62697;BME280;48761;42.680;23.312;2023-06-10T12:23:14;94232.00;;;25.41;39.86
62697;BME280;48761;42.680;23.312;2023-06-10T12:25:53;94231.22;;;25.34;39.16
62697;BME280;48761;42.680;23.312;2023-06-10T12:28:23;94226.88;;;25.19;37.07
62697;BME280;48761;42.680;23.312;2023-06-10T12:30:50;94232.16;;;24.94;38.17
62697;BME280;48761;42.680;23.312;2023-06-10T12:33:20;94201.00;;;25.10;38.49
62697;BME280;48761;42.680;23.312;2023-06-10T12:35:48;94218.06;;;25.24;38.76
62697;BME280;48761;42.680;23.312;2023-06-10T12:38:14;94193.19;;;25.21;37.79
62697;BME280;48761;42.680;23.312;2023-06-10T12:40:46;94211.03;;;25.03;37.29
62697;BME280;48761;42.680;23.312;2023-06-10T12:43:12;94190.34;;;25.02;36.60
62697;BME280;48761;42.680;23.312;2023-06-10T12:45:39;94208.13;;;25.04;36.73
62697;BME280;48761;42.680;23.312;2023-06-10T12:48:12;94208.97;;;25.05;36.00
62697;BME280;48761;42.680;23.312;2023-06-10T12:50:41;94208.84;;;25.32;35.99
62697;BME280;48761;42.680;23.312;2023-06-10T12:53:08;94214.47;;;25.37;35.75
62697;BME280;48761;42.680;23.312;2023-06-10T12:55:34;94211.50;;;25.46;36.26
62697;BME280;48761;42.680;23.312;2023-06-10T12:58:00;94215.75;;;25.74;35.96
62697;BME280;48761;42.680;23.312;2023-06-10T13:00:27;94212.59;;;25.38;36.82
62697;BME280;48761;42.680;23.312;2023-06-10T13:02:53;94211.34;;;25.34;36.77
62697;BME280;48761;42.680;23.312;2023-06-10T13:05:19;94204.38;;;25.45;36.49
62697;BME280;48761;42.680;23.312;2023-06-10T13:07:46;94216.38;;;25.76;36.50
62697;BME280;48761;42.680;23.312;2023-06-10T13:10:13;94215.31;;;25.77;36.91